sensor_id;sensor_type;location;lat;lon;timestamp;pressure;altitude;pressure_sealevel;temperature
82400;BMP280;72039;48.812;8.198;2024-03-25T00:10:05;102572.94;;;7.08
82400;BMP280;72039;48.812;8.198;2024-03-25T00:12:33;102569.38;;;7.07
82400;BMP280;72039;48.812;8.198;2024-03-25T00:14:58;102574.31;;;7.07
82400;BMP280;72039;48.812;8.198;2024-03-25T00:17:24;102564.97;;;7.04
82400;BMP280;72039;48.812;8.198;2024-03-25T00:19:49;102561.38;;;7.04
82400;BMP280;72039;48.812;8.198;2024-03-25T00:22:18;102557.19;;;7.05
82400;BMP280;72039;48.812;8.198;2024-03-25T00:24:47;102564.97;;;7.04
82400;BMP280;72039;48.812;8.198;2024-03-25T00:27:14;102558.66;;;7.06
82400;BMP280;72039;48.812;8.198;2024-03-25T00:29:40;102550.88;;;7.06
82400;BMP280;72039;48.812;8.198;2024-03-25T00:32:06;102556.56;;;7.06
82400;BMP280;72039;48.812;8.198;2024-03-25T00:34:34;102552.25;;;7.05
82400;BMP280;72039;48.812;8.198;2024-03-25T00:37:02;102560.16;;;7.07
82400;BMP280;72039;48.812;8.198;2024-03-25T00:39:28;102550.16;;;7.06
82400;BMP280;72039;48.812;8.198;2024-03-25T00:41:54;102558.53;;;7.04
82400;BMP280;72039;48.812;8.198;2024-03-25T00:44:19;102557.06;;;7.03
82400;BMP280;72039;48.812;8.198;2024-03-25T00:46:48;102565.81;;;7.07
82400;BMP280;72039;48.812;8.198;2024-03-25T00:49:13;102560.88;;;7.07
82400;BMP280;72039;48.812;8.198;2024-03-25T00:51:41;102561.00;;;7.09
82400;BMP280;72039;48.812;8.198;2024-03-25T00:54:06;102561.00;;;7.09
82400;BMP280;72039;48.812;8.198;2024-03-25T00:56:32;102561.72;;;7.10
82400;BMP280;72039;48.812;8.198;2024-03-25T00:59:00;102561.72;;;7.10
82400;BMP280;72039;48.812;8.198;2024-03-25T01:01:33;102560.28;;;7.09
82400;BMP280;72039;48.812;8.198;2024-03-25T01:04:02;102556.06;;;7.10
82400;BMP280;72039;48.812;8.198;2024-03-25T01:06:28;102562.47;;;7.10
82400;BMP280;72039;48.812;8.198;2024-03-25T01:08:53;102562.59;;;7.12
82400;BMP280;72039;48.812;8.198;2024-03-25T01:11:19;102561.63;;;7.08
82400;BMP280;72039;48.812;8.198;2024-03-25T01:13:44;102560.28;;;7.09
82400;BMP280;72039;48.812;8.198;2024-03-25T01:16:11;102563.19;;;7.11
82400;BMP280;72039;48.812;8.198;2024-03-25T01:18:37;102551.75;;;7.09
82400;BMP280;72039;48.812;8.198;2024-03-25T01:21:03;102560.50;;;7.13
82400;BMP280;72039;48.812;8.198;2024-03-25T01:23:38;102556.31;;;7.14
82400;BMP280;72039;48.812;8.198;2024-03-25T01:26:04;102557.03;;;7.14
82400;BMP280;72039;48.812;8.198;2024-03-25T01:28:29;102545.69;;;7.14
82400;BMP280;72039;48.812;8.198;2024-03-25T01:30:57;102548.41;;;7.12
82400;BMP280;72039;48.812;8.198;2024-03-25T01:33:23;102556.06;;;7.10
82400;BMP280;72039;48.812;8.198;2024-03-25T01:35:51;102554.69;;;7.11
82400;BMP280;72039;48.812;8.198;2024-03-25T01:38:18;102553.34;;;7.12
82400;BMP280;72039;48.812;8.198;2024-03-25T01:40:43;102541.16;;;7.09
82400;BMP280;72039;48.812;8.198;2024-03-25T01:43:10;102533.25;;;7.08
82400;BMP280;72039;48.812;8.198;2024-03-25T01:45:36;102540.31;;;7.07
82400;BMP280;72039;48.812;8.198;2024-03-25T01:48:06;102548.81;;;7.07
82400;BMP280;72039;48.812;8.198;2024-03-25T01:50:36;102534.75;;;7.09
82400;BMP280;72039;48.812;8.198;2024-03-25T01:53:03;102543.47;;;7.13
82400;BMP280;72039;48.812;8.198;2024-03-25T01:55:29;102536.47;;;7.14
82400;BMP280;72039;48.812;8.198;2024-03-25T01:57:56;102534.34;;;7.14
82400;BMP280;72039;48.812;8.198;2024-03-25T02:00:22;102537.81;;;7.13
82400;BMP280;72039;48.812;8.198;2024-03-25T02:02:50;102532.91;;;7.13
82400;BMP280;72039;48.812;8.198;2024-03-25T02:05:17;102532.13;;;7.13
82400;BMP280;72039;48.812;8.198;2024-03-25T02:07:48;102534.25;;;7.12
82400;BMP280;72039;48.812;8.198;2024-03-25T02:10:15;102527.22;;;7.13
82400;BMP280;72039;48.812;8.198;2024-03-25T02:12:42;102525.00;;;7.12
82400;BMP280;72039;48.812;8.198;2024-03-25T02:15:14;102524.38;;;7.13
82400;BMP280;72039;48.812;8.198;2024-03-25T02:17:42;102520.78;;;7.13
82400;BMP280;72039;48.812;8.198;2024-03-25T02:20:08;102527.28;;;7.15
82400;BMP280;72039;48.812;8.198;2024-03-25T02:22:36;102517.34;;;7.14
82400;BMP280;72039;48.812;8.198;2024-03-25T02:25:05;102527.28;;;7.15
82400;BMP280;72039;48.812;8.198;2024-03-25T02:27:31;102523.63;;;7.13
82400;BMP280;72039;48.812;8.198;2024-03-25T02:30:09;102522.91;;;7.12
82400;BMP280;72039;48.812;8.198;2024-03-25T02:32:38;102522.03;;;7.10
82400;BMP280;72039;48.812;8.198;2024-03-25T02:35:05;102518.34;;;7.07
82400;BMP280;72039;48.812;8.198;2024-03-25T02:37:32;102507.75;;;7.08
82400;BMP280;72039;48.812;8.198;2024-03-25T02:40:00;102510.47;;;7.06
82400;BMP280;72039;48.812;8.198;2024-03-25T02:42:29;102511.72;;;7.03
82400;BMP280;72039;48.812;8.198;2024-03-25T02:44:56;102507.31;;;7.00
82400;BMP280;72039;48.812;8.198;2024-03-25T02:47:22;102504.47;;;7.00
82400;BMP280;72039;48.812;8.198;2024-03-25T02:49:47;102504.34;;;6.97
82400;BMP280;72039;48.812;8.198;2024-03-25T02:52:14;102503.59;;;6.97
82400;BMP280;72039;48.812;8.198;2024-03-25T03:01:38;102505.69;;;6.96
82400;BMP280;72039;48.812;8.198;2024-03-25T03:04:03;102493.75;;;6.98
82400;BMP280;72039;48.812;8.198;2024-03-25T03:06:29;102503.84;;;7.01
82400;BMP280;72039;48.812;8.198;2024-03-25T03:08:54;102500.38;;;7.03
82400;BMP280;72039;48.812;8.198;2024-03-25T03:11:22;102501.84;;;7.04
82400;BMP280;72039;48.812;8.198;2024-03-25T03:13:47;102498.91;;;7.02
82400;BMP280;72039;48.812;8.198;2024-03-25T03:16:13;102501.84;;;7.04
82400;BMP280;72039;48.812;8.198;2024-03-25T03:18:39;102497.00;;;7.06
82400;BMP280;72039;48.812;8.198;2024-03-25T03:21:05;102499.97;;;7.08
82400;BMP280;72039;48.812;8.198;2024-03-25T03:23:30;102496.41;;;7.08
82400;BMP280;72039;48.812;8.198;2024-03-25T03:25:58;102500.63;;;7.07
82400;BMP280;72039;48.812;8.198;2024-03-25T03:28:25;102499.84;;;7.06
82400;BMP280;72039;48.812;8.198;2024-03-25T03:30:52;102492.22;;;7.09
82400;BMP280;72039;48.812;8.198;2024-03-25T03:33:19;102495.66;;;7.07
82400;BMP280;72039;48.812;8.198;2024-03-25T03:35:48;102494.94;;;7.07
82400;BMP280;72039;48.812;8.198;2024-03-25T03:38:15;102494.19;;;7.06
82400;BMP280;72039;48.812;8.198;2024-03-25T03:40:41;102500.63;;;7.07
82400;BMP280;72039;48.812;8.198;2024-03-25T03:43:06;102496.41;;;7.08
82400;BMP280;72039;48.812;8.198;2024-03-25T03:45:52;102497.91;;;7.09
82400;BMP280;72039;48.812;8.198;2024-03-25T03:48:17;102499.97;;;7.08
82400;BMP280;72039;48.812;8.198;2024-03-25T03:50:43;102495.91;;;7.11
82400;BMP280;72039;48.812;8.198;2024-03-25T03:53:11;102497.13;;;7.08
82400;BMP280;72039;48.812;8.198;2024-03-25T03:55:37;102490.72;;;7.08
82400;BMP280;72039;48.812;8.198;2024-03-25T03:58:05;102500.72;;;7.09
82400;BMP280;72039;48.812;8.198;2024-03-25T04:00:35;102501.47;;;7.09
82400;BMP280;72039;48.812;8.198;2024-03-25T04:03:01;102498.00;;;7.11
82400;BMP280;72039;48.812;8.198;2024-03-25T04:05:30;102503.66;;;7.11
82400;BMP280;72039;48.812;8.198;2024-03-25T04:07:56;102500.09;;;7.10
82400;BMP280;72039;48.812;8.198;2024-03-25T04:10:26;102502.94;;;7.10
82400;BMP280;72039;48.812;8.198;2024-03-25T04:12:53;102493.69;;;7.10
82400;BMP280;72039;48.812;8.198;2024-03-25T04:15:20;102492.84;;;7.07
82400;BMP280;72039;48.812;8.198;2024-03-25T04:17:46;102494.94;;;7.07
82400;BMP280;72039;48.812;8.198;2024-03-25T04:20:14;102496.28;;;7.06
82400;BMP280;72039;48.812;8.198;2024-03-25T04:22:45;102491.97;;;7.05
82400;BMP280;72039;48.812;8.198;2024-03-25T04:25:11;102487.03;;;7.05
82400;BMP280;72039;48.812;8.198;2024-03-25T04:27:41;102486.31;;;7.05
82400;BMP280;72039;48.812;8.198;2024-03-25T04:30:07;102491.97;;;7.05
82400;BMP280;72039;48.812;8.198;2024-03-25T04:32:34;102481.38;;;7.05
82400;BMP280;72039;48.812;8.198;2024-03-25T04:35:00;102493.44;;;7.06
82400;BMP280;72039;48.812;8.198;2024-03-25T04:37:27;102489.75;;;7.03
82400;BMP280;72039;48.812;8.198;2024-03-25T04:39:56;102493.97;;;7.02
82400;BMP280;72039;48.812;8.198;2024-03-25T04:42:23;102486.19;;;7.03
82400;BMP280;72039;48.812;8.198;2024-03-25T04:44:51;102497.66;;;7.05
82400;BMP280;72039;48.812;8.198;2024-03-25T04:47:17;102491.97;;;7.05
82400;BMP280;72039;48.812;8.198;2024-03-25T04:49:51;102494.09;;;7.04
82400;BMP280;72039;48.812;8.198;2024-03-25T04:52:19;102497.53;;;7.03
82400;BMP280;72039;48.812;8.198;2024-03-25T04:54:48;102493.22;;;7.02
82400;BMP280;72039;48.812;8.198;2024-03-25T04:57:14;102488.28;;;7.02
82400;BMP280;72039;48.812;8.198;2024-03-25T04:59:41;102500.38;;;7.03
82400;BMP280;72039;48.812;8.198;2024-03-25T05:02:07;102494.69;;;7.03
82400;BMP280;72039;48.812;8.198;2024-03-25T05:04:32;102501.84;;;7.04
82400;BMP280;72039;48.812;8.198;2024-03-25T05:06:58;102500.38;;;7.03
82400;BMP280;72039;48.812;8.198;2024-03-25T05:09:26;102491.88;;;7.03
82400;BMP280;72039;48.812;8.198;2024-03-25T05:14:16;102504.34;;;6.97
82400;BMP280;72039;48.812;8.198;2024-03-25T05:16:44;102508.66;;;6.99
82400;BMP280;72039;48.812;8.198;2024-03-25T05:19:09;102502.25;;;6.98
82400;BMP280;72039;48.812;8.198;2024-03-25T05:21:35;102501.66;;;7.00
82400;BMP280;72039;48.812;8.198;2024-03-25T05:24:02;102508.78;;;7.01
82400;BMP280;72039;48.812;8.198;2024-03-25T05:26:34;102500.28;;;7.01
82400;BMP280;72039;48.812;8.198;2024-03-25T05:28:59;102497.31;;;6.99
82400;BMP280;72039;48.812;8.198;2024-03-25T05:31:25;102507.31;;;7.00
82400;BMP280;72039;48.812;8.198;2024-03-25T05:33:53;102508.66;;;6.99
82400;BMP280;72039;48.812;8.198;2024-03-25T05:36:18;102505.81;;;6.99
82400;BMP280;72039;48.812;8.198;2024-03-25T05:38:45;102504.47;;;7.00
82400;BMP280;72039;48.812;8.198;2024-03-25T05:41:12;102495.84;;;6.97
82400;BMP280;72039;48.812;8.198;2024-03-25T05:43:38;102495.22;;;6.99
82400;BMP280;72039;48.812;8.198;2024-03-25T05:46:03;102499.41;;;6.98
82400;BMP280;72039;48.812;8.198;2024-03-25T05:48:31;102496.59;;;6.98
82400;BMP280;72039;48.812;8.198;2024-03-25T05:51:05;102492.25;;;6.97
82400;BMP280;72039;48.812;8.198;2024-03-25T05:53:32;102497.19;;;6.96
82400;BMP280;72039;48.812;8.198;2024-03-25T05:56:01;102495.09;;;6.97
82400;BMP280;72039;48.812;8.198;2024-03-25T05:58:30;102498.69;;;6.97
82400;BMP280;72039;48.812;8.198;2024-03-25T06:00:55;102502.38;;;7.00
82400;BMP280;72039;48.812;8.198;2024-03-25T06:03:23;102495.97;;;7.00
82400;BMP280;72039;48.812;8.198;2024-03-25T06:05:48;102504.47;;;7.00
82400;BMP280;72039;48.812;8.198;2024-03-25T06:08:14;102500.16;;;6.99
82400;BMP280;72039;48.812;8.198;2024-03-25T06:10:50;102503.84;;;7.01
82400;BMP280;72039;48.812;8.198;2024-03-25T06:13:16;102503.19;;;7.03
82400;BMP280;72039;48.812;8.198;2024-03-25T06:15:43;102511.19;;;7.06
82400;BMP280;72039;48.812;8.198;2024-03-25T06:18:09;102502.06;;;7.08
82400;BMP280;72039;48.812;8.198;2024-03-25T06:20:34;102506.50;;;7.11
82400;BMP280;72039;48.812;8.198;2024-03-25T06:23:00;102500.34;;;7.14
82400;BMP280;72039;48.812;8.198;2024-03-25T06:25:26;102503.25;;;7.16
82400;BMP280;72039;48.812;8.198;2024-03-25T06:27:52;102510.50;;;7.19
82400;BMP280;72039;48.812;8.198;2024-03-25T06:30:17;102507.06;;;7.21
82400;BMP280;72039;48.812;8.198;2024-03-25T06:33:03;102510.63;;;7.22
82400;BMP280;72039;48.812;8.198;2024-03-25T06:35:46;102517.03;;;7.22
82400;BMP280;72039;48.812;8.198;2024-03-25T06:38:12;102512.84;;;7.23
82400;BMP280;72039;48.812;8.198;2024-03-25T06:40:37;102508.78;;;7.26
82400;BMP280;72039;48.812;8.198;2024-03-25T06:43:03;102513.28;;;7.31
82400;BMP280;72039;48.812;8.198;2024-03-25T06:45:29;102510.56;;;7.33
82400;BMP280;72039;48.812;8.198;2024-03-25T06:47:56;102506.38;;;7.34
82400;BMP280;72039;48.812;8.198;2024-03-25T06:50:22;102510.69;;;7.35
82400;BMP280;72039;48.812;8.198;2024-03-25T06:52:52;102511.00;;;7.41
82400;BMP280;72039;48.812;8.198;2024-03-25T06:55:21;102506.00;;;7.54
82400;BMP280;72039;48.812;8.198;2024-03-25T06:57:58;102498.47;;;7.72
82400;BMP280;72039;48.812;8.198;2024-03-25T07:00:26;102489.44;;;7.90
82400;BMP280;72039;48.812;8.198;2024-03-25T07:02:53;102493.41;;;8.12
82400;BMP280;72039;48.812;8.198;2024-03-25T07:05:20;102487.59;;;8.38
82400;BMP280;72039;48.812;8.198;2024-03-25T07:07:46;102485.97;;;8.62
82400;BMP280;72039;48.812;8.198;2024-03-25T07:10:11;102478.53;;;8.85
82400;BMP280;72039;48.812;8.198;2024-03-25T07:12:37;102480.41;;;9.10
82400;BMP280;72039;48.812;8.198;2024-03-25T07:15:02;102474.16;;;9.29
82400;BMP280;72039;48.812;8.198;2024-03-25T07:17:29;102472.88;;;9.48
82400;BMP280;72039;48.812;8.198;2024-03-25T07:19:57;102476.47;;;9.64
82400;BMP280;72039;48.812;8.198;2024-03-25T07:22:27;102459.25;;;9.78
82400;BMP280;72039;48.812;8.198;2024-03-25T07:24:52;102463.44;;;9.93
82400;BMP280;72039;48.812;8.198;2024-03-25T07:27:24;102448.50;;;10.10
82400;BMP280;72039;48.812;8.198;2024-03-25T07:29:51;102455.63;;;10.27
82400;BMP280;72039;48.812;8.198;2024-03-25T07:32:17;102461.28;;;10.43
82400;BMP280;72039;48.812;8.198;2024-03-25T07:34:42;102460.84;;;10.51
82400;BMP280;72039;48.812;8.198;2024-03-25T07:37:07;102459.19;;;10.63
82400;BMP280;72039;48.812;8.198;2024-03-25T07:39:33;102465.47;;;10.78
82400;BMP280;72039;48.812;8.198;2024-03-25T07:41:59;102464.47;;;10.89
82400;BMP280;72039;48.812;8.198;2024-03-25T07:44:27;102464.16;;;10.99
82400;BMP280;72039;48.812;8.198;2024-03-25T07:46:55;102464.75;;;11.15
82400;BMP280;72039;48.812;8.198;2024-03-25T07:49:20;102463.00;;;10.88
82400;BMP280;72039;48.812;8.198;2024-03-25T07:51:46;102470.94;;;10.54
82400;BMP280;72039;48.812;8.198;2024-03-25T07:54:11;102472.06;;;10.29
82400;BMP280;72039;48.812;8.198;2024-03-25T07:56:39;102478.13;;;10.03
82400;BMP280;72039;48.812;8.198;2024-03-25T07:59:07;102471.00;;;9.86
82400;BMP280;72039;48.812;8.198;2024-03-25T08:01:34;102485.53;;;9.77
82400;BMP280;72039;48.812;8.198;2024-03-25T08:04:00;102478.19;;;9.71
82400;BMP280;72039;48.812;8.198;2024-03-25T08:06:27;102468.16;;;9.86
82400;BMP280;72039;48.812;8.198;2024-03-25T08:08:52;102463.38;;;9.91
82400;BMP280;72039;48.812;8.198;2024-03-25T08:11:18;102469.00;;;9.89
82400;BMP280;72039;48.812;8.198;2024-03-25T08:13:46;102460.94;;;9.83
82400;BMP280;72039;48.812;8.198;2024-03-25T08:18:57;81432.25;;;10.15
82400;BMP280;72039;48.812;8.198;2024-03-25T08:21:24;102456.44;;;10.30
82400;BMP280;72039;48.812;8.198;2024-03-25T08:23:55;102447.72;;;10.61
82400;BMP280;72039;48.812;8.198;2024-03-25T08:26:22;102439.75;;;10.96
82400;BMP280;72039;48.812;8.198;2024-03-25T08:28:56;102436.56;;;11.25
82400;BMP280;72039;48.812;8.198;2024-03-25T08:31:22;102438.81;;;11.47
82400;BMP280;72039;48.812;8.198;2024-03-25T08:33:50;102437.16;;;11.62
82400;BMP280;72039;48.812;8.198;2024-03-25T08:36:18;102433.25;;;11.73
82400;BMP280;72039;48.812;8.198;2024-03-25T08:38:46;102424.50;;;11.89
82400;BMP280;72039;48.812;8.198;2024-03-25T08:41:11;102416.66;;;12.11
82400;BMP280;72039;48.812;8.198;2024-03-25T08:43:36;102426.69;;;12.34
82400;BMP280;72039;48.812;8.198;2024-03-25T08:46:02;102430.72;;;12.49
82400;BMP280;72039;48.812;8.198;2024-03-25T08:48:29;102440.47;;;12.64
82400;BMP280;72039;48.812;8.198;2024-03-25T08:50:57;102430.84;;;12.77
82400;BMP280;72039;48.812;8.198;2024-03-25T08:53:30;102425.59;;;12.93
82400;BMP280;72039;48.812;8.198;2024-03-25T08:56:00;102429.50;;;13.04
82400;BMP280;72039;48.812;8.198;2024-03-25T08:58:25;102413.38;;;13.17
82400;BMP280;72039;48.812;8.198;2024-03-25T09:00:55;102419.34;;;13.25
82400;BMP280;72039;48.812;8.198;2024-03-25T09:03:23;102406.09;;;13.40
82400;BMP280;72039;48.812;8.198;2024-03-25T09:05:48;102400.69;;;13.52
82400;BMP280;72039;48.812;8.198;2024-03-25T09:08:14;102397.50;;;13.68
82400;BMP280;72039;48.812;8.198;2024-03-25T09:10:43;102397.75;;;13.78
82400;BMP280;72039;48.812;8.198;2024-03-25T09:13:27;102376.06;;;13.99
82400;BMP280;72039;48.812;8.198;2024-03-25T09:15:53;102376.41;;;14.15
82400;BMP280;72039;48.812;8.198;2024-03-25T09:18:21;102367.41;;;14.29
82400;BMP280;72039;48.812;8.198;2024-03-25T09:20:49;102365.53;;;14.42
82400;BMP280;72039;48.812;8.198;2024-03-25T09:23:14;102352.22;;;14.57
82400;BMP280;72039;48.812;8.198;2024-03-25T09:25:39;102368.16;;;14.66
82400;BMP280;72039;48.812;8.198;2024-03-25T09:28:10;102359.63;;;14.70
82400;BMP280;72039;48.812;8.198;2024-03-25T09:30:35;102349.84;;;14.81
82400;BMP280;72039;48.812;8.198;2024-03-25T09:33:03;102357.22;;;14.94
82400;BMP280;72039;48.812;8.198;2024-03-25T09:35:31;102350.88;;;15.00
82400;BMP280;72039;48.812;8.198;2024-03-25T09:37:58;102350.50;;;15.18
82400;BMP280;72039;48.812;8.198;2024-03-25T09:40:24;102341.97;;;15.24
82400;BMP280;72039;48.812;8.198;2024-03-25T09:42:56;102334.13;;;15.29
82400;BMP280;72039;48.812;8.198;2024-03-25T09:45:24;102330.59;;;15.30
82400;BMP280;72039;48.812;8.198;2024-03-25T09:47:54;102328.66;;;15.43
82400;BMP280;72039;48.812;8.198;2024-03-25T09:50:20;102321.69;;;15.58
82400;BMP280;72039;48.812;8.198;2024-03-25T09:52:52;102315.88;;;15.54
82400;BMP280;72039;48.812;8.198;2024-03-25T09:55:20;102308.94;;;15.70
82400;BMP280;72039;48.812;8.198;2024-03-25T09:57:45;102317.81;;;15.88
82400;BMP280;72039;48.812;8.198;2024-03-25T10:00:12;102310.16;;;16.07
82400;BMP280;72039;48.812;8.198;2024-03-25T10:02:40;102306.09;;;16.26
82400;BMP280;72039;48.812;8.198;2024-03-25T10:05:08;102312.06;;;16.45
82400;BMP280;72039;48.812;8.198;2024-03-25T10:07:34;102305.41;;;16.30
82400;BMP280;72039;48.812;8.198;2024-03-25T10:10:04;102309.28;;;16.55
82400;BMP280;72039;48.812;8.198;2024-03-25T10:12:30;102307.06;;;16.49
82400;BMP280;72039;48.812;8.198;2024-03-25T10:14:59;102294.44;;;16.14
82400;BMP280;72039;48.812;8.198;2024-03-25T10:19:50;102298.31;;;15.32
82400;BMP280;72039;48.812;8.198;2024-03-25T10:22:15;102297.19;;;15.07
82400;BMP280;72039;48.812;8.198;2024-03-25T10:24:45;102294.81;;;14.95
82400;BMP280;72039;48.812;8.198;2024-03-25T10:27:17;102295.41;;;14.89
82400;BMP280;72039;48.812;8.198;2024-03-25T10:29:45;102282.88;;;15.09
82400;BMP280;72039;48.812;8.198;2024-03-25T10:32:16;102273.44;;;15.49
82400;BMP280;72039;48.812;8.198;2024-03-25T10:34:42;102255.91;;;15.81
82400;BMP280;72039;48.812;8.198;2024-03-25T10:37:13;102256.97;;;16.06
82400;BMP280;72039;48.812;8.198;2024-03-25T10:39:54;102247.69;;;16.13
82400;BMP280;72039;48.812;8.198;2024-03-25T10:42:21;102235.81;;;16.46
82400;BMP280;72039;48.812;8.198;2024-03-25T10:44:48;102238.06;;;16.57
82400;BMP280;72039;48.812;8.198;2024-03-25T10:47:20;102230.31;;;16.72
82400;BMP280;72039;48.812;8.198;2024-03-25T10:49:55;102231.97;;;17.00
82400;BMP280;72039;48.812;8.198;2024-03-25T10:52:24;102217.69;;;17.22
82400;BMP280;72039;48.812;8.198;2024-03-25T10:54:54;102214.94;;;17.42
82400;BMP280;72039;48.812;8.198;2024-03-25T10:57:22;102213.47;;;17.35
82400;BMP280;72039;48.812;8.198;2024-03-25T10:59:49;102214.91;;;17.38
82400;BMP280;72039;48.812;8.198;2024-03-25T11:02:15;102211.44;;;17.60
82400;BMP280;72039;48.812;8.198;2024-03-25T11:04:44;102197.75;;;17.65
82400;BMP280;72039;48.812;8.198;2024-03-25T11:07:14;102193.44;;;17.68
82400;BMP280;72039;48.812;8.198;2024-03-25T11:09:40;102191.94;;;17.59
82400;BMP280;72039;48.812;8.198;2024-03-25T11:12:12;102184.78;;;17.66
82400;BMP280;72039;48.812;8.198;2024-03-25T11:14:38;102179.09;;;17.80
82400;BMP280;72039;48.812;8.198;2024-03-25T11:17:15;102181.16;;;17.55
82400;BMP280;72039;48.812;8.198;2024-03-25T11:19:43;102187.41;;;17.15
82400;BMP280;72039;48.812;8.198;2024-03-25T11:22:11;102181.38;;;16.70
82400;BMP280;72039;48.812;8.198;2024-03-25T11:24:43;102184.13;;;16.56
82400;BMP280;72039;48.812;8.198;2024-03-25T11:27:09;102171.34;;;16.79
82400;BMP280;72039;48.812;8.198;2024-03-25T11:29:35;102157.88;;;17.10
82400;BMP280;72039;48.812;8.198;2024-03-25T11:32:04;102150.81;;;17.42
82400;BMP280;72039;48.812;8.198;2024-03-25T11:34:30;102135.78;;;17.72
82400;BMP280;72039;48.812;8.198;2024-03-25T11:36:57;102135.78;;;17.74
82400;BMP280;72039;48.812;8.198;2024-03-25T11:39:26;102134.28;;;17.51
82400;BMP280;72039;48.812;8.198;2024-03-25T11:41:54;102135.59;;;17.23
82400;BMP280;72039;48.812;8.198;2024-03-25T11:44:20;102134.22;;;17.30
82400;BMP280;72039;48.812;8.198;2024-03-25T11:46:49;102120.59;;;17.53
82400;BMP280;72039;48.812;8.198;2024-03-25T11:49:23;102109.88;;;17.76
82400;BMP280;72039;48.812;8.198;2024-03-25T11:51:48;102101.94;;;17.89
82400;BMP280;72039;48.812;8.198;2024-03-25T11:54:16;102106.97;;;17.78
82400;BMP280;72039;48.812;8.198;2024-03-25T11:56:43;102094.66;;;17.63
82400;BMP280;72039;48.812;8.198;2024-03-25T11:59:08;102100.47;;;17.82
82400;BMP280;72039;48.812;8.198;2024-03-25T12:01:35;102096.94;;;18.06
82400;BMP280;72039;48.812;8.198;2024-03-25T12:04:15;102088.28;;;18.20
82400;BMP280;72039;48.812;8.198;2024-03-25T12:06:40;102077.41;;;18.21
82400;BMP280;72039;48.812;8.198;2024-03-25T12:09:06;102072.38;;;17.88
82400;BMP280;72039;48.812;8.198;2024-03-25T12:11:51;102058.66;;;17.75
82400;BMP280;72039;48.812;8.198;2024-03-25T12:14:17;102055.06;;;17.88
82400;BMP280;72039;48.812;8.198;2024-03-25T12:16:44;102047.84;;;17.69
82400;BMP280;72039;48.812;8.198;2024-03-25T12:19:10;102035.63;;;17.66
82400;BMP280;72039;48.812;8.198;2024-03-25T12:21:36;102031.25;;;17.67
82400;BMP280;72039;48.812;8.198;2024-03-25T12:24:02;102020.44;;;17.82
82400;BMP280;72039;48.812;8.198;2024-03-25T12:26:30;102023.34;;;18.07
82400;BMP280;72039;48.812;8.198;2024-03-25T12:28:58;102015.41;;;18.13
82400;BMP280;72039;48.812;8.198;2024-03-25T12:31:26;102003.13;;;18.19
82400;BMP280;72039;48.812;8.198;2024-03-25T12:33:51;102010.31;;;18.36
82400;BMP280;72039;48.812;8.198;2024-03-25T12:36:17;102003.13;;;18.25
82400;BMP280;72039;48.812;8.198;2024-03-25T12:38:42;102005.34;;;17.94
82400;BMP280;72039;48.812;8.198;2024-03-25T12:41:15;101998.84;;;17.85
82400;BMP280;72039;48.812;8.198;2024-03-25T12:43:49;101993.06;;;17.59
82400;BMP280;72039;48.812;8.198;2024-03-25T12:46:15;101988.75;;;17.56
82400;BMP280;72039;48.812;8.198;2024-03-25T12:48:41;101985.16;;;17.70
82400;BMP280;72039;48.812;8.198;2024-03-25T12:51:14;101975.75;;;17.77
82400;BMP280;72039;48.812;8.198;2024-03-25T12:53:42;101978.63;;;17.57
82400;BMP280;72039;48.812;8.198;2024-03-25T12:56:07;101981.47;;;17.28
82400;BMP280;72039;48.812;8.198;2024-03-25T12:58:41;101974.19;;;16.95
82400;BMP280;72039;48.812;8.198;2024-03-25T13:01:06;101968.44;;;16.90
82400;BMP280;72039;48.812;8.198;2024-03-25T13:03:31;101950.47;;;17.02
82400;BMP280;72039;48.812;8.198;2024-03-25T13:05:58;101938.31;;;17.51
82400;BMP280;72039;48.812;8.198;2024-03-25T13:08:26;101926.03;;;17.83
82400;BMP280;72039;48.812;8.198;2024-03-25T13:10:51;101916.59;;;18.07
82400;BMP280;72039;48.812;8.198;2024-03-25T13:13:23;101908.56;;;18.44
82400;BMP280;72039;48.812;8.198;2024-03-25T13:15:48;101903.38;;;18.77
82400;BMP280;72039;48.812;8.198;2024-03-25T13:18:13;101898.13;;;19.02
82400;BMP280;72039;48.812;8.198;2024-03-25T13:20:39;101890.06;;;19.17
82400;BMP280;72039;48.812;8.198;2024-03-25T13:23:04;101884.88;;;19.36
82400;BMP280;72039;48.812;8.198;2024-03-25T13:25:30;101883.38;;;19.41
82400;BMP280;72039;48.812;8.198;2024-03-25T13:27:56;101878.34;;;19.39
82400;BMP280;72039;48.812;8.198;2024-03-25T13:30:22;101878.38;;;19.35
82400;BMP280;72039;48.812;8.198;2024-03-25T13:32:52;101889.94;;;19.33
82400;BMP280;72039;48.812;8.198;2024-03-25T13:35:17;101882.03;;;19.30
82400;BMP280;72039;48.812;8.198;2024-03-25T13:37:43;101879.84;;;19.32
82400;BMP280;72039;48.812;8.198;2024-03-25T13:40:09;101879.78;;;19.38
82400;BMP280;72039;48.812;8.198;2024-03-25T13:42:36;101876.88;;;19.38
82400;BMP280;72039;48.812;8.198;2024-03-25T13:45:04;101861.66;;;19.46
82400;BMP280;72039;48.812;8.198;2024-03-25T13:47:30;101851.47;;;19.53
82400;BMP280;72039;48.812;8.198;2024-03-25T13:50:02;101848.47;;;19.61
82400;BMP280;72039;48.812;8.198;2024-03-25T13:52:28;101834.81;;;19.58
82400;BMP280;72039;48.812;8.198;2024-03-25T13:54:54;101837.06;;;19.49
82400;BMP280;72039;48.812;8.198;2024-03-25T13:57:19;101837.97;;;19.27
82400;BMP280;72039;48.812;8.198;2024-03-25T13:59:44;101833.78;;;19.10
82400;BMP280;72039;48.812;8.198;2024-03-25T14:02:10;101831.75;;;18.92
82400;BMP280;72039;48.812;8.198;2024-03-25T14:04:38;101829.00;;;18.74
82400;BMP280;72039;48.812;8.198;2024-03-25T14:07:04;101823.34;;;18.57
82400;BMP280;72039;48.812;8.198;2024-03-25T14:09:31;101806.09;;;18.41
82400;BMP280;72039;48.812;8.198;2024-03-25T14:11:59;101809.78;;;18.31
82400;BMP280;72039;48.812;8.198;2024-03-25T14:14:27;101809.81;;;18.19
82400;BMP280;72039;48.812;8.198;2024-03-25T14:16:53;101796.22;;;18.01
82400;BMP280;72039;48.812;8.198;2024-03-25T14:19:18;101795.56;;;17.78
82400;BMP280;72039;48.812;8.198;2024-03-25T14:21:43;101799.97;;;17.51
82400;BMP280;72039;48.812;8.198;2024-03-25T14:24:10;101781.97;;;17.30
82400;BMP280;72039;48.812;8.198;2024-03-25T14:26:37;101771.19;;;17.20
82400;BMP280;72039;48.812;8.198;2024-03-25T14:29:07;101785.56;;;17.08